Time;durP1;ratioP1;P1;durP2;ratioP2;P2;SDS_P1;SDS_P2;PMS_P1;PMS_P2;Temp;Humidity;BMP_temperature;BMP_pressure;BME280_temperature;BME280_humidity;BME280_pressure;Samples;Min_cycle;Max_cycle;Signal;HPM_P1;HPM_P2
2022/10/17 00:02:17;;;;;;;12.93;9.23;;;13.40;99.90;;;;;;5097725;28;20438;-73
2022/10/17 00:04:43;;;;;;;11.73;8.60;;;13.30;99.90;;;;;;5111396;27;20450;-73
2022/10/17 00:07:10;;;;;;;8.73;7.60;;;13.30;99.90;;;;;;5100261;28;20450;-73
2022/10/17 00:09:38;;;;;;;11.80;7.57;;;13.30;99.90;;;;;;5097685;28;20995;-73
2022/10/17 00:12:05;;;;;;;9.13;7.00;;;13.30;99.90;;;;;;5097148;28;20463;-73
2022/10/17 00:14:32;;;;;;;8.33;7.40;;;13.20;99.90;;;;;;5093746;28;20827;-73
2022/10/17 00:16:58;;;;;;;8.73;7.87;;;13.20;99.90;;;;;;5093797;28;20872;-73
2022/10/17 00:19:25;;;;;;;11.13;6.87;;;13.20;99.90;;;;;;5111360;28;20450;-73
2022/10/17 00:21:52;;;;;;;8.03;7.20;;;13.20;99.90;;;;;;5096067;28;20470;-73
2022/10/17 00:24:19;;;;;;;9.40;7.00;;;13.10;99.90;;;;;;5095123;28;20443;-74
2022/10/17 00:26:47;;;;;;;8.70;7.17;;;13.10;99.90;;;;;;5097811;28;20453;-72
2022/10/17 00:29:13;;;;;;;7.40;6.70;;;13.10;99.90;;;;;;5096629;28;20967;-73
2022/10/17 00:31:40;;;;;;;7.87;7.07;;;13.10;99.90;;;;;;5112431;28;20478;-73
2022/10/17 00:34:07;;;;;;;8.13;7.33;;;13.10;99.90;;;;;;5114432;28;20483;-72
2022/10/17 00:36:34;;;;;;;8.03;7.33;;;13.10;99.90;;;;;;5112357;28;20447;-73
2022/10/17 00:39:00;;;;;;;8.13;7.20;;;13.00;99.90;;;;;;5097101;28;20485;-73
2022/10/17 00:41:30;;;;;;;8.20;7.40;;;13.00;99.90;;;;;;5107845;28;20477;-73
2022/10/17 00:44:01;;;;;;;9.70;7.43;;;13.00;99.90;;;;;;5109862;28;20440;-73
2022/10/17 00:46:30;;;;;;;9.43;7.63;;;13.10;99.90;;;;;;5101374;28;20500;-73
2022/10/17 00:49:00;;;;;;;9.10;6.20;;;13.10;99.90;;;;;;5094220;28;20799;-73
2022/10/17 00:51:33;;;;;;;8.93;7.20;;;13.10;99.90;;;;;;5093263;28;20464;-73
2022/10/17 00:54:02;;;;;;;9.83;7.20;;;13.10;99.90;;;;;;5103583;28;21003;-72
2022/10/17 00:56:30;;;;;;;11.17;8.07;;;13.00;99.90;;;;;;5103578;28;20449;-73
2022/10/17 00:58:58;;;;;;;10.47;8.80;;;13.00;99.90;;;;;;5110531;28;20457;-73
2022/10/17 01:01:25;;;;;;;17.47;8.37;;;13.10;99.90;;;;;;5097213;28;20548;-73
2022/10/17 01:03:52;;;;;;;11.03;7.50;;;13.10;99.90;;;;;;5108723;28;20446;-74
2022/10/17 01:06:19;;;;;;;8.63;7.70;;;13.10;99.90;;;;;;5110894;28;20450;-73
2022/10/17 01:08:46;;;;;;;8.60;7.07;;;13.10;99.90;;;;;;5092161;28;20451;-74
2022/10/17 01:11:22;;;;;;;14.53;7.77;;;13.10;99.90;;;;;;5092672;28;20528;-74
2022/10/17 01:13:54;;;;;;;12.93;8.20;;;13.10;99.90;;;;;;5092627;28;20463;-73
2022/10/17 01:16:36;;;;;;;11.13;8.93;;;13.10;99.90;;;;;;5092733;28;20455;-73
2022/10/17 01:19:19;;;;;;;19.10;9.20;;;13.20;99.90;;;;;;5092000;28;20451;-74
2022/10/17 01:21:53;;;;;;;14.23;8.37;;;13.30;99.90;;;;;;5091353;28;20942;-73
2022/10/17 01:24:51;;;;;;;9.00;7.50;;;13.30;99.90;;;;;;5112839;28;20449;-74
2022/10/17 01:27:47;;;;;;;11.73;8.30;;;13.30;99.90;;;;;;5093314;28;20507;-72
2022/10/17 01:30:43;;;;;;;17.00;9.10;;;13.20;99.90;;;;;;5093985;28;20455;-73
2022/10/17 01:33:15;;;;;;;13.50;8.87;;;13.20;99.90;;;;;;5092504;28;20465;-73
2022/10/17 01:35:49;;;;;;;14.00;8.60;;;13.20;99.90;;;;;;5102884;28;20475;-73
2022/10/17 01:38:21;;;;;;;11.27;8.57;;;13.20;99.90;;;;;;5101289;28;20453;-73
2022/10/17 01:40:52;;;;;;;9.40;8.40;;;13.20;99.90;;;;;;5112244;28;20431;-74
2022/10/17 01:43:25;;;;;;;11.63;8.87;;;13.20;99.90;;;;;;5111631;28;20457;-73
2022/10/17 01:45:59;;;;;;;28.70;9.27;;;13.20;99.90;;;;;;5101815;28;20546;-73
2022/10/17 01:48:30;;;;;;;9.90;7.73;;;13.20;99.90;;;;;;5093419;28;21059;-74
2022/10/17 01:51:02;;;;;;;13.73;8.23;;;13.20;99.90;;;;;;5092124;28;20447;-74
2022/10/17 01:53:33;;;;;;;17.20;8.10;;;13.20;99.90;;;;;;5093283;28;20448;-72
2022/10/17 01:56:03;;;;;;;11.60;7.10;;;13.20;99.90;;;;;;5108723;28;20501;-73
2022/10/17 01:58:33;;;;;;;11.47;7.47;;;13.10;99.90;;;;;;5098168;28;20508;-73
2022/10/17 02:01:05;;;;;;;8.50;7.27;;;13.10;99.90;;;;;;5105977;27;20455;-73
2022/10/17 02:03:33;;;;;;;9.43;7.60;;;13.10;99.90;;;;;;5104382;27;20443;-73
2022/10/17 02:06:00;;;;;;;11.27;7.40;;;13.00;99.90;;;;;;5112316;28;21033;-73
2022/10/17 02:08:28;;;;;;;9.30;7.33;;;13.10;99.90;;;;;;5098553;28;20446;-74
2022/10/17 02:11:00;;;;;;;8.00;7.20;;;13.00;99.90;;;;;;5091093;28;20443;-73
2022/10/17 02:13:38;;;;;;;11.90;8.60;;;13.00;99.90;;;;;;5091531;28;20484;-73
2022/10/17 02:16:13;;;;;;;14.30;8.30;;;13.00;99.90;;;;;;5094906;28;20487;-74
2022/10/17 02:18:56;;;;;;;10.70;8.20;;;13.00;99.90;;;;;;5110572;28;20484;-73
2022/10/17 02:21:31;;;;;;;13.40;9.20;;;13.00;99.90;;;;;;5107051;28;20469;-73
2022/10/17 02:24:07;;;;;;;11.33;7.87;;;13.00;99.90;;;;;;5112243;28;20453;-74
2022/10/17 02:26:40;;;;;;;11.63;8.73;;;12.90;99.90;;;;;;5110695;28;20452;-74
2022/10/17 02:29:13;;;;;;;10.53;9.20;;;12.90;99.90;;;;;;5099588;28;20839;-73
2022/10/17 02:31:45;;;;;;;10.90;8.00;;;12.90;99.90;;;;;;5104266;28;20539;-73
2022/10/17 02:34:18;;;;;;;37.43;10.60;;;12.90;99.90;;;;;;5111313;28;20809;-73
2022/10/17 02:36:48;;;;;;;13.33;8.70;;;13.00;99.90;;;;;;5107323;28;20959;-74
2022/10/17 02:39:16;;;;;;;14.00;9.07;;;13.00;99.90;;;;;;5111719;28;20461;-73
2022/10/17 02:41:44;;;;;;;15.73;9.17;;;13.00;99.90;;;;;;5111480;28;20890;-73
2022/10/17 02:44:11;;;;;;;11.73;9.30;;;13.10;99.90;;;;;;5092529;28;20452;-73
2022/10/17 02:46:39;;;;;;;14.53;9.03;;;13.10;99.90;;;;;;5091459;28;20453;-74
2022/10/17 02:49:14;;;;;;;15.30;9.60;;;13.20;99.90;;;;;;5100120;28;20451;-73
2022/10/17 02:51:45;;;;;;;18.53;9.00;;;13.20;99.90;;;;;;5091463;28;20524;-73
2022/10/17 02:54:20;;;;;;;21.97;10.30;;;13.10;99.90;;;;;;5105158;28;20455;-73
2022/10/17 02:56:51;;;;;;;16.93;9.40;;;13.10;99.90;;;;;;5108393;28;20451;-74
2022/10/17 02:59:22;;;;;;;13.13;9.70;;;13.10;99.90;;;;;;5110228;28;20451;-73
2022/10/17 03:01:50;;;;;;;10.40;8.70;;;13.10;99.90;;;;;;5111530;28;20474;-73
2022/10/17 03:04:19;;;;;;;14.27;9.00;;;13.10;99.90;;;;;;5109665;27;20514;-74
2022/10/17 03:06:48;;;;;;;11.90;9.73;;;13.00;99.90;;;;;;5091056;28;20501;-74
2022/10/17 03:09:15;;;;;;;13.20;9.20;;;13.00;99.90;;;;;;5104478;28;20474;-74
2022/10/17 03:11:42;;;;;;;11.60;7.93;;;13.00;99.90;;;;;;5110018;28;20892;-74
2022/10/17 03:14:08;;;;;;;16.60;9.40;;;12.90;99.90;;;;;;5103209;28;20466;-74
2022/10/17 03:16:35;;;;;;;17.13;7.57;;;12.90;99.90;;;;;;5091462;28;20813;-74
2022/10/17 03:19:02;;;;;;;11.33;8.13;;;12.80;99.90;;;;;;5107808;28;20508;-74
2022/10/17 03:21:30;;;;;;;10.30;7.70;;;12.80;99.90;;;;;;5097863;28;20473;-75
2022/10/17 03:23:56;;;;;;;16.87;9.07;;;12.80;99.90;;;;;;5098652;28;20456;-75
2022/10/17 03:26:23;;;;;;;11.80;9.97;;;12.80;99.90;;;;;;5094789;28;20454;-74
2022/10/17 03:28:50;;;;;;;9.30;8.40;;;12.80;99.90;;;;;;5095028;28;20459;-75
2022/10/17 03:31:17;;;;;;;9.27;8.20;;;12.90;99.90;;;;;;5107957;28;20486;-74
2022/10/17 03:33:44;;;;;;;15.97;8.30;;;12.90;99.90;;;;;;5115273;27;20498;-74
2022/10/17 03:36:12;;;;;;;13.70;8.50;;;12.90;99.90;;;;;;5095676;28;20519;-74
2022/10/17 03:38:42;;;;;;;14.20;8.30;;;12.90;99.90;;;;;;5094889;28;20455;-75
2022/10/17 03:41:09;;;;;;;14.03;8.63;;;12.80;99.90;;;;;;5111489;28;20999;-74
2022/10/17 03:43:36;;;;;;;12.90;9.30;;;12.90;99.90;;;;;;5093261;28;20971;-75
2022/10/17 03:46:03;;;;;;;13.80;7.93;;;12.80;99.90;;;;;;5113528;28;20952;-74
2022/10/17 03:48:31;;;;;;;11.27;8.50;;;12.90;99.90;;;;;;5107981;28;20461;-73
2022/10/17 03:50:59;;;;;;;22.33;8.50;;;12.80;99.90;;;;;;5101201;28;20955;-73
2022/10/17 03:53:26;;;;;;;12.17;9.23;;;12.80;99.90;;;;;;5094235;28;20502;-73
2022/10/17 03:55:54;;;;;;;14.17;9.80;;;12.90;99.90;;;;;;5094443;28;20487;-74
2022/10/17 03:58:21;;;;;;;13.37;10.03;;;12.90;99.90;;;;;;5094625;28;20454;-73
2022/10/17 04:00:48;;;;;;;29.57;9.03;;;13.00;99.90;;;;;;5093980;28;20443;-73
2022/10/17 04:03:14;;;;;;;12.10;8.50;;;13.00;99.90;;;;;;5115608;27;20857;-74
2022/10/17 04:05:41;;;;;;;23.00;10.00;;;12.90;99.90;;;;;;5114300;28;20867;-74
2022/10/17 04:08:08;;;;;;;11.47;9.43;;;13.00;99.90;;;;;;5105544;28;20457;-74
2022/10/17 04:10:34;;;;;;;12.60;9.40;;;13.00;99.90;;;;;;5093366;28;20452;-73
2022/10/17 04:13:02;;;;;;;13.70;8.90;;;13.00;99.90;;;;;;5092671;28;20470;-74
2022/10/17 04:15:29;;;;;;;21.67;9.17;;;13.00;99.90;;;;;;5093288;28;20857;-73
2022/10/17 04:17:56;;;;;;;13.23;8.87;;;13.10;99.90;;;;;;5104811;28;20454;-73
2022/10/17 04:20:22;;;;;;;17.30;9.23;;;13.10;99.90;;;;;;5108373;28;20440;-74
2022/10/17 04:22:49;;;;;;;17.10;9.73;;;13.20;99.90;;;;;;5093795;28;20470;-74
2022/10/17 04:25:16;;;;;;;13.77;9.97;;;13.20;99.90;;;;;;5094265;28;20450;-74
2022/10/17 04:27:42;;;;;;;10.50;8.97;;;13.20;99.90;;;;;;5093916;28;20505;-74
2022/10/17 04:30:11;;;;;;;16.30;8.77;;;13.20;99.90;;;;;;5093765;28;20543;-74
2022/10/17 04:32:38;;;;;;;13.80;10.10;;;13.20;99.90;;;;;;5094422;28;21054;-74
2022/10/17 04:35:05;;;;;;;12.27;9.77;;;13.30;99.90;;;;;;5097063;28;20780;-74
2022/10/17 04:37:32;;;;;;;14.03;9.23;;;13.30;99.90;;;;;;5114103;28;20446;-73
2022/10/17 04:39:59;;;;;;;26.97;10.20;;;13.30;99.90;;;;;;5113545;28;20969;-74
2022/10/17 04:42:26;;;;;;;13.87;9.90;;;13.30;99.90;;;;;;5113074;28;20494;-74
2022/10/17 04:44:52;;;;;;;13.93;9.57;;;13.30;99.90;;;;;;5113288;28;20450;-73
2022/10/17 04:47:20;;;;;;;13.80;9.70;;;13.30;99.90;;;;;;5112620;27;20462;-73
2022/10/17 04:49:47;;;;;;;17.13;10.40;;;13.30;99.90;;;;;;5112218;28;20462;-73
2022/10/17 04:52:14;;;;;;;19.87;9.37;;;13.30;99.90;;;;;;5112471;28;20481;-73
2022/10/17 04:54:40;;;;;;;13.20;10.13;;;13.30;99.90;;;;;;5112836;28;20447;-73
2022/10/17 04:57:07;;;;;;;14.30;10.00;;;13.30;99.90;;;;;;5112411;28;20453;-73
2022/10/17 04:59:34;;;;;;;12.43;10.40;;;13.40;99.90;;;;;;5112893;28;20854;-73
2022/10/17 05:02:00;;;;;;;13.97;9.57;;;13.40;99.90;;;;;;5114626;27;20470;-73
2022/10/17 05:04:28;;;;;;;17.30;9.77;;;13.30;99.90;;;;;;5134319;27;20454;-73
2022/10/17 05:06:55;;;;;;;10.07;8.90;;;13.30;99.90;;;;;;5134009;27;20420;-73
2022/10/17 05:09:22;;;;;;;15.90;9.70;;;13.30;99.90;;;;;;5134148;27;20506;-73
2022/10/17 05:11:48;;;;;;;16.60;9.90;;;13.30;99.90;;;;;;5133629;27;20473;-74
2022/10/17 05:14:15;;;;;;;11.40;9.53;;;13.30;99.90;;;;;;5133774;27;20531;-74
2022/10/17 05:16:42;;;;;;;12.80;9.57;;;13.30;99.90;;;;;;5133599;27;20885;-73
2022/10/17 05:19:09;;;;;;;18.60;9.30;;;13.30;99.90;;;;;;5133949;27;20457;-74
2022/10/17 05:21:37;;;;;;;15.47;10.00;;;13.30;99.90;;;;;;5117659;27;20474;-73
2022/10/17 05:24:05;;;;;;;16.57;9.60;;;13.20;99.90;;;;;;5113046;28;20460;-73
2022/10/17 05:26:32;;;;;;;21.73;9.50;;;13.20;99.90;;;;;;5113080;28;20449;-73
2022/10/17 05:29:01;;;;;;;16.07;9.87;;;13.20;99.90;;;;;;5112946;28;20442;-73
2022/10/17 05:31:28;;;;;;;9.63;8.30;;;13.10;99.90;;;;;;5112379;28;20485;-74
2022/10/17 05:33:55;;;;;;;20.97;8.50;;;13.10;99.90;;;;;;5112923;28;20538;-74
2022/10/17 05:36:22;;;;;;;9.80;8.37;;;13.00;99.90;;;;;;5112970;28;20505;-73
2022/10/17 05:38:51;;;;;;;17.53;9.57;;;12.90;99.90;;;;;;5112984;28;20495;-74
2022/10/17 05:41:19;;;;;;;11.83;8.73;;;12.90;99.90;;;;;;5113009;28;20476;-74
2022/10/17 05:43:46;;;;;;;13.00;9.40;;;12.90;99.90;;;;;;5112337;28;20446;-73
2022/10/17 05:46:12;;;;;;;15.80;9.13;;;12.90;99.90;;;;;;5112009;28;20500;-74
2022/10/17 05:48:39;;;;;;;10.80;9.03;;;12.90;99.90;;;;;;5112716;28;20872;-73
2022/10/17 05:51:07;;;;;;;14.90;9.60;;;13.00;99.90;;;;;;5112437;28;20470;-74
2022/10/17 05:53:36;;;;;;;17.53;9.40;;;13.00;99.90;;;;;;5112395;28;20450;-73
2022/10/17 05:56:06;;;;;;;19.63;8.40;;;13.00;99.90;;;;;;5112398;28;20475;-74
2022/10/17 05:58:34;;;;;;;14.67;8.13;;;13.00;99.90;;;;;;5112822;28;20510;-73
2022/10/17 06:01:03;;;;;;;15.00;8.40;;;13.10;99.90;;;;;;5112383;28;20715;-74
2022/10/17 06:03:30;;;;;;;13.60;8.70;;;13.10;99.90;;;;;;5126656;27;20474;-74
2022/10/17 06:06:02;;;;;;;11.90;8.30;;;13.10;99.90;;;;;;5133448;27;20444;-74
2022/10/17 06:08:29;;;;;;;14.07;7.93;;;13.10;99.90;;;;;;5132932;27;20849;-73
2022/10/17 06:10:55;;;;;;;10.27;8.20;;;13.10;99.90;;;;;;5132304;27;20448;-73
2022/10/17 06:13:23;;;;;;;10.67;8.13;;;13.10;99.90;;;;;;5132722;27;20457;-74
2022/10/17 06:15:50;;;;;;;12.60;8.03;;;13.10;99.90;;;;;;5132775;27;20486;-73
2022/10/17 06:18:17;;;;;;;22.70;8.23;;;13.00;99.90;;;;;;5132581;27;20867;-73
2022/10/17 06:20:43;;;;;;;15.60;7.73;;;13.00;99.90;;;;;;5124052;27;20506;-74
2022/10/17 06:23:10;;;;;;;9.73;7.60;;;13.00;99.90;;;;;;5111761;28;20454;-74
2022/10/17 06:25:37;;;;;;;18.57;8.00;;;13.00;99.90;;;;;;5112268;28;20445;-74
2022/10/17 06:28:04;;;;;;;16.57;8.10;;;13.20;99.90;;;;;;5112251;28;20451;-73
2022/10/17 06:30:32;;;;;;;13.67;6.70;;;13.40;99.90;;;;;;5111765;28;20465;-74
2022/10/17 06:32:58;;;;;;;9.70;6.50;;;13.90;99.90;;;;;;5112008;28;20470;-73
2022/10/17 06:35:25;;;;;;;13.40;6.60;;;14.50;99.90;;;;;;5111907;28;20447;-73
2022/10/17 06:37:52;;;;;;;12.00;6.73;;;15.10;99.90;;;;;;5111657;28;20453;-74
2022/10/17 06:40:19;;;;;;;8.60;5.80;;;15.80;99.90;;;;;;5112056;28;20432;-74
2022/10/17 06:42:45;;;;;;;12.03;6.20;;;16.30;99.90;;;;;;5111774;28;20853;-73
2022/10/17 06:45:12;;;;;;;7.43;6.40;;;16.90;99.90;;;;;;5111839;28;20454;-73
2022/10/17 06:47:40;;;;;;;16.43;12.60;;;17.30;99.90;;;;;;5111964;28;20478;-73
2022/10/17 06:50:07;;;;;;;37.07;18.27;;;17.40;99.90;;;;;;5111899;28;20421;-74
2022/10/17 06:52:34;;;;;;;76.30;25.10;;;17.70;99.90;;;;;;5111331;28;20939;-74
2022/10/17 06:55:00;;;;;;;21.83;10.40;;;18.10;99.90;;;;;;5111786;28;20429;-75
2022/10/17 06:57:28;;;;;;;55.03;16.10;;;18.30;99.90;;;;;;5114179;28;20472;-75
2022/10/17 06:59:56;;;;;;;26.07;8.03;;;18.50;99.90;;;;;;5115855;28;20543;-77
2022/10/17 07:02:23;;;;;;;38.93;11.40;;;18.60;99.90;;;;;;5120319;27;20814;-76
2022/10/17 07:04:51;;;;;;;13.60;8.00;;;18.80;99.90;;;;;;5136113;27;20456;-76
2022/10/17 07:07:18;;;;;;;12.13;5.53;;;19.10;99.90;;;;;;5136177;27;20925;-77
2022/10/17 07:09:44;;;;;;;7.93;5.47;;;19.40;99.90;;;;;;5136109;27;20962;-77
2022/10/17 07:12:11;;;;;;;14.53;5.30;;;19.80;99.90;;;;;;5136050;27;20501;-77
2022/10/17 07:14:38;;;;;;;11.07;5.33;;;20.30;99.90;;;;;;5136061;27;20497;-77
2022/10/17 07:17:05;;;;;;;11.63;5.10;;;20.70;99.90;;;;;;5136202;27;20459;-77
2022/10/17 07:19:31;;;;;;;9.10;5.50;;;21.00;99.90;;;;;;5136370;27;20712;-77
2022/10/17 07:21:59;;;;;;;6.33;4.50;;;21.30;99.90;;;;;;5116704;27;20466;-77
2022/10/17 07:24:26;;;;;;;8.57;5.40;;;21.70;99.90;;;;;;5115548;28;20425;-77
2022/10/17 07:26:53;;;;;;;11.00;5.13;;;22.00;99.90;;;;;;5115315;28;20438;-77
2022/10/17 07:29:20;;;;;;;10.07;5.17;;;22.30;99.90;;;;;;5115451;28;20507;-77
2022/10/17 07:31:47;;;;;;;13.73;5.47;;;22.40;99.90;;;;;;5115074;28;20486;-77
2022/10/17 07:34:14;;;;;;;6.10;5.17;;;22.50;99.90;;;;;;5114941;28;20449;-77
2022/10/17 07:36:41;;;;;;;8.90;5.20;;;22.60;99.90;;;;;;5114968;28;20514;-76
2022/10/17 07:39:09;;;;;;;10.30;5.93;;;22.60;99.90;;;;;;5115311;27;20504;-77
2022/10/17 07:41:36;;;;;;;10.90;5.97;;;22.40;99.90;;;;;;5115079;27;20470;-77
2022/10/17 07:44:03;;;;;;;9.93;5.90;;;21.80;99.90;;;;;;5115160;28;20468;-76
2022/10/17 07:46:30;;;;;;;13.00;5.80;;;21.50;99.90;;;;;;5114929;28;20948;-77
2022/10/17 07:48:57;;;;;;;11.23;5.30;;;21.30;99.90;;;;;;5115240;28;20454;-76
2022/10/17 07:51:23;;;;;;;8.27;5.27;;;21.30;99.90;;;;;;5114745;28;20481;-76
2022/10/17 07:53:50;;;;;;;9.70;5.80;;;21.30;99.90;;;;;;5115093;27;20465;-76
2022/10/17 07:56:18;;;;;;;8.30;5.27;;;21.30;99.90;;;;;;5114725;28;20478;-76
2022/10/17 07:58:46;;;;;;;14.93;6.17;;;21.30;99.90;;;;;;5114885;28;20495;-76
2022/10/17 08:01:14;;;;;;;9.20;6.07;;;21.30;99.90;;;;;;5114075;28;20471;-77
2022/10/17 08:03:41;;;;;;;13.80;6.10;;;21.20;99.90;;;;;;5130467;27;20533;-77
2022/10/17 08:06:08;;;;;;;10.23;6.20;;;21.10;99.90;;;;;;5135158;27;20498;-77
2022/10/17 08:08:35;;;;;;;9.37;6.00;;;21.10;99.90;;;;;;5134599;27;20750;-77
2022/10/17 08:11:04;;;;;;;8.43;6.30;;;21.20;99.90;;;;;;5134723;27;20498;-77
2022/10/17 08:13:32;;;;;;;11.07;6.33;;;21.10;99.90;;;;;;5134991;27;20454;-77
2022/10/17 08:16:00;;;;;;;13.77;6.30;;;21.20;99.90;;;;;;5134656;27;20503;-77
2022/10/17 08:18:27;;;;;;;11.03;6.27;;;21.40;99.90;;;;;;5135217;27;20563;-78
2022/10/17 08:20:53;;;;;;;11.63;5.93;;;21.50;99.90;;;;;;5124799;27;20457;-77
2022/10/17 08:23:20;;;;;;;6.07;5.43;;;21.40;99.90;;;;;;5114375;28;20507;-77
2022/10/17 08:25:47;;;;;;;8.53;6.10;;;21.40;99.90;;;;;;5114176;28;20530;-77
2022/10/17 08:28:13;;;;;;;15.13;5.90;;;21.50;99.90;;;;;;5114136;28;20474;-77
2022/10/17 08:30:41;;;;;;;12.10;5.93;;;21.50;99.90;;;;;;5113756;28;20466;-77
2022/10/17 08:33:08;;;;;;;7.83;5.70;;;21.50;99.90;;;;;;5114176;28;20511;-77
2022/10/17 08:35:35;;;;;;;15.50;5.30;;;21.20;99.90;;;;;;5114187;28;20442;-77
2022/10/17 08:38:01;;;;;;;6.13;5.37;;;21.20;99.90;;;;;;5113985;28;20490;-77
2022/10/17 08:40:32;;;;;;;11.23;5.33;;;21.20;99.90;;;;;;5113855;28;20450;-77
2022/10/17 08:43:18;;;;;;;15.00;6.27;;;21.20;99.90;;;;;;5113937;27;20475;-78
2022/10/17 08:45:52;;;;;;;9.73;6.20;;;21.30;99.90;;;;;;5111342;27;20956;-77
2022/10/17 08:48:21;;;;;;;9.90;6.43;;;21.40;99.90;;;;;;5113934;28;20443;-77
2022/10/17 08:50:52;;;;;;;15.30;6.00;;;21.20;99.90;;;;;;5113388;28;20474;-77
2022/10/17 08:53:25;;;;;;;8.40;6.03;;;21.20;99.90;;;;;;5113560;28;20451;-78
2022/10/17 08:55:54;;;;;;;9.97;5.47;;;21.50;99.90;;;;;;5114012;28;20818;-77
2022/10/17 08:58:23;;;;;;;15.30;6.20;;;21.60;99.90;;;;;;5113604;27;20478;-78
2022/10/17 09:00:59;;;;;;;7.13;6.03;;;21.40;99.90;;;;;;5113782;28;20454;-78
2022/10/17 09:03:52;;;;;;;16.27;5.80;;;21.40;99.90;;;;;;5127436;27;20449;-77
2022/10/17 09:06:28;;;;;;;9.53;5.90;;;21.50;99.90;;;;;;5134217;27;20438;-77
2022/10/17 09:09:07;;;;;;;7.87;5.97;;;21.60;99.90;;;;;;5134117;27;20616;-77
2022/10/17 09:11:46;;;;;;;9.43;5.77;;;21.90;99.90;;;;;;5133736;27;20831;-77
2022/10/17 09:14:29;;;;;;;8.70;5.50;;;21.80;99.90;;;;;;5133584;27;20950;-77
2022/10/17 09:17:11;;;;;;;12.07;5.70;;;21.60;99.90;;;;;;5133882;27;20477;-77
2022/10/17 09:19:42;;;;;;;11.70;5.37;;;21.60;99.90;;;;;;5133677;27;20856;-78
2022/10/17 09:22:14;;;;;;;13.53;5.60;;;21.60;99.90;;;;;;5112932;27;20473;-77
2022/10/17 09:24:44;;;;;;;13.30;5.47;;;21.40;99.90;;;;;;5113001;28;20446;-77
2022/10/17 09:27:22;;;;;;;13.63;5.73;;;21.10;99.90;;;;;;5113189;28;20446;-77
2022/10/17 09:29:52;;;;;;;9.50;6.00;;;21.10;99.90;;;;;;5113001;28;20948;-77
2022/10/17 09:32:24;;;;;;;9.80;5.80;;;21.10;99.90;;;;;;5112856;27;20482;-77
2022/10/17 09:34:51;;;;;;;10.33;6.13;;;21.10;99.90;;;;;;5112746;28;20952;-78
2022/10/17 09:37:19;;;;;;;7.57;5.33;;;21.00;99.90;;;;;;5112786;28;20492;-78
2022/10/17 09:39:46;;;;;;;9.37;5.80;;;21.10;99.90;;;;;;5113037;28;20450;-78
2022/10/17 09:42:17;;;;;;;10.20;5.80;;;21.20;99.90;;;;;;5112784;28;20467;-77
2022/10/17 09:44:50;;;;;;;13.93;5.70;;;21.30;99.90;;;;;;5112720;28;20451;-77
2022/10/17 09:47:29;;;;;;;6.10;5.00;;;21.30;99.90;;;;;;5112768;28;20473;-77
2022/10/17 09:49:56;;;;;;;10.47;6.13;;;21.40;99.90;;;;;;5112913;28;20454;-78
2022/10/17 09:52:28;;;;;;;10.30;5.70;;;21.60;99.90;;;;;;5112491;28;20466;-77
2022/10/17 09:55:01;;;;;;;21.70;5.73;;;21.80;99.90;;;;;;5112709;28;20465;-78
2022/10/17 09:57:28;;;;;;;13.47;5.60;;;21.70;99.90;;;;;;5112493;28;20478;-78
2022/10/17 10:00:00;;;;;;;8.30;6.00;;;21.70;99.90;;;;;;5112542;28;20468;-78
2022/10/17 10:02:29;;;;;;;10.53;6.17;;;21.80;99.90;;;;;;5117618;27;20473;-77
2022/10/17 10:04:58;;;;;;;9.30;5.87;;;21.80;99.90;;;;;;5133062;27;20441;-78
2022/10/17 10:07:27;;;;;;;8.50;6.00;;;21.90;99.90;;;;;;5132944;27;20445;-77
2022/10/17 10:09:55;;;;;;;8.60;5.33;;;21.90;99.90;;;;;;5132776;27;20445;-77
2022/10/17 10:12:23;;;;;;;12.53;5.93;;;21.80;99.90;;;;;;5132500;27;20468;-78
2022/10/17 10:14:50;;;;;;;7.00;5.93;;;21.90;99.90;;;;;;5132855;27;20446;-78
2022/10/17 10:17:40;;;;;;;10.17;6.70;;;21.90;99.90;;;;;;5132852;27;20489;-77
2022/10/17 10:20:27;;;;;;;9.27;4.90;;;22.00;99.90;;;;;;5129418;27;20559;-78
2022/10/17 10:23:17;;;;;;;10.73;4.77;;;22.20;99.90;;;;;;5111855;28;20478;-78
2022/10/17 10:25:54;;;;;;;7.43;4.10;;;22.50;99.90;;;;;;5112301;28;20450;-76
2022/10/17 10:28:25;;;;;;;8.43;3.40;;;22.70;99.90;;;;;;5112170;28;20443;-78
2022/10/17 10:30:53;;;;;;;8.87;3.80;;;23.10;99.90;;;;;;5111480;28;20447;-79
2022/10/17 10:33:23;;;;;;;14.90;3.57;;;23.20;99.90;;;;;;5111670;28;20453;-78
2022/10/17 10:36:00;;;;;;;7.33;3.57;;;23.30;99.90;;;;;;5112322;28;20438;-78
2022/10/17 10:38:27;;;;;;;4.53;3.57;;;23.10;99.90;;;;;;5112343;28;20682;-77
2022/10/17 10:40:55;;;;;;;11.87;3.40;;;23.00;99.90;;;;;;5111668;28;20450;-78
2022/10/17 10:43:26;;;;;;;5.70;3.50;;;23.20;99.90;;;;;;5112558;28;20454;-78
2022/10/17 10:45:53;;;;;;;12.47;3.70;;;23.30;99.90;;;;;;5111692;28;20495;-78
2022/10/17 10:48:23;;;;;;;4.53;3.50;;;23.30;99.90;;;;;;5111790;28;20932;-78
2022/10/17 10:50:53;;;;;;;8.20;3.33;;;23.50;99.90;;;;;;5111583;28;20450;-78
2022/10/17 10:53:32;;;;;;;10.13;3.70;;;23.50;99.90;;;;;;5112062;28;20443;-78
2022/10/17 10:56:02;;;;;;;9.57;3.17;;;23.50;99.90;;;;;;5111758;28;20821;-78
2022/10/17 10:58:38;;;;;;;7.37;3.37;;;23.50;99.90;;;;;;5111586;28;20546;-78
2022/10/17 11:01:11;;;;;;;6.80;3.33;;;23.50;99.90;;;;;;5111610;28;20883;-78
2022/10/17 11:03:48;;;;;;;13.97;3.30;;;23.80;99.90;;;;;;5126948;27;20446;-79
2022/10/17 11:06:22;;;;;;;10.87;3.07;;;24.00;99.90;;;;;;5132010;27;20498;-78
2022/10/17 11:08:52;;;;;;;3.83;2.87;;;24.10;99.90;;;;;;5132092;27;20444;-78
2022/10/17 11:11:28;;;;;;;6.73;3.17;;;24.10;99.90;;;;;;5131910;27;20465;-78
2022/10/17 11:14:00;;;;;;;3.30;3.00;;;24.20;99.90;;;;;;5132512;27;20456;-79
2022/10/17 11:16:33;;;;;;;10.80;3.10;;;24.40;99.90;;;;;;5132115;27;20480;-79
2022/10/17 11:19:12;;;;;;;8.43;3.00;;;24.30;99.90;;;;;;5132040;27;20485;-79
2022/10/17 11:21:46;;;;;;;8.90;3.33;;;24.30;99.90;;;;;;5115887;27;20767;-79
2022/10/17 11:24:20;;;;;;;8.60;3.00;;;24.50;99.90;;;;;;5111598;28;20927;-78
2022/10/17 11:26:54;;;;;;;19.60;3.60;;;24.80;99.90;;;;;;5111573;28;20503;-78
2022/10/17 11:29:22;;;;;;;7.97;2.77;;;25.00;99.90;;;;;;5111680;28;20861;-78
2022/10/17 11:31:52;;;;;;;4.17;3.10;;;24.80;99.90;;;;;;5110745;28;21018;-79
2022/10/17 11:34:25;;;;;;;5.80;3.43;;;24.80;99.90;;;;;;5111513;28;20454;-79
2022/10/17 11:36:56;;;;;;;9.70;2.97;;;24.90;99.90;;;;;;5111394;28;20451;-79
2022/10/17 11:39:29;;;;;;;6.03;3.50;;;25.30;99.90;;;;;;5111557;28;20442;-79
2022/10/17 11:42:00;;;;;;;4.03;2.73;;;25.50;99.90;;;;;;5110967;28;20478;-78
2022/10/17 11:44:31;;;;;;;7.10;3.27;;;25.70;99.90;;;;;;5113427;28;20486;-79
2022/10/17 11:47:03;;;;;;;3.80;2.73;;;25.90;99.90;;;;;;5115086;28;20457;-79
2022/10/17 11:49:36;;;;;;;7.80;2.67;;;26.00;99.90;;;;;;5115232;27;20465;-79
2022/10/17 11:52:22;;;;;;;7.70;2.80;;;25.70;99.90;;;;;;5114634;28;20477;-78
2022/10/17 11:54:52;;;;;;;11.07;3.17;;;25.40;99.90;;;;;;5114984;28;20450;-79
2022/10/17 11:57:39;;;;;;;8.40;3.10;;;25.50;99.90;;;;;;5114581;28;20986;-79
2022/10/17 12:00:22;;;;;;;7.37;3.10;;;25.60;99.90;;;;;;5114832;28;20431;-79
2022/10/17 12:02:57;;;;;;;6.20;2.90;;;25.50;99.90;;;;;;5122733;27;20978;-78
2022/10/17 12:05:34;;;;;;;9.57;2.90;;;25.50;99.90;;;;;;5135456;27;20460;-79
2022/10/17 12:08:06;;;;;;;5.90;2.77;;;25.30;99.90;;;;;;5135137;27;20957;-79
2022/10/17 12:10:43;;;;;;;11.20;3.00;;;25.30;99.90;;;;;;5135042;27;20491;-79
2022/10/17 12:13:48;;;;;;;5.13;3.20;;;25.30;99.90;;;;;;5135117;27;20438;-78
2022/10/17 12:16:44;;;;;;;4.93;3.20;;;25.30;99.90;;;;;;5135316;27;20500;-79
2022/10/17 12:19:25;;;;;;;7.13;3.10;;;25.30;99.90;;;;;;5135137;27;20517;-79
2022/10/17 12:22:12;;;;;;;3.70;3.00;;;25.30;99.90;;;;;;5116534;27;21043;-79
2022/10/17 12:24:41;;;;;;;7.17;3.23;;;25.20;99.90;;;;;;5114242;28;20454;-79
2022/10/17 12:27:38;;;;;;;3.37;2.93;;;25.00;99.90;;;;;;5114495;28;20478;-79
2022/10/17 12:30:15;;;;;;;5.90;3.37;;;25.00;99.90;;;;;;5113983;28;20836;-79
2022/10/17 12:33:05;;;;;;;3.47;3.17;;;25.30;99.90;;;;;;5114025;27;20502;-79
2022/10/17 12:35:34;;;;;;;10.30;3.07;;;25.60;99.90;;;;;;5114230;28;20529;-79
2022/10/17 12:38:27;;;;;;;11.90;3.60;;;26.00;99.90;;;;;;5114177;28;20490;-79
2022/10/17 12:41:04;;;;;;;7.20;2.90;;;26.00;99.90;;;;;;5114080;28;20451;-79
2022/10/17 12:43:48;;;;;;;9.43;2.90;;;25.90;99.90;;;;;;5113972;28;20518;-78
2022/10/17 12:46:43;;;;;;;4.10;3.10;;;25.80;99.90;;;;;;5113947;28;20451;-79
2022/10/17 12:49:47;;;;;;;5.27;3.00;;;25.60;99.90;;;;;;5113895;28;20529;-79
2022/10/17 12:52:20;;;;;;;8.00;3.03;;;25.60;99.90;;;;;;5113364;28;21006;-79
2022/10/17 12:54:55;;;;;;;6.03;3.33;;;25.50;99.90;;;;;;5113504;28;20443;-79
2022/10/17 12:57:27;;;;;;;12.67;3.80;;;25.50;99.90;;;;;;5113748;28;20507;-79
2022/10/17 12:59:53;;;;;;;4.07;3.37;;;25.20;99.90;;;;;;5113896;28;20446;-79